Falls Intl-Einarson Field Information

FAA: INL - ICAO: KINL

Falls Intl-Einarson Field (Airport) Location

State Minnesota
County Koochiching
City International Falls
Falls Intl-Einarson Field (Airport) is 0 miles south of International Falls, MN.
Latitude 48-33-56.1000N
Longitude 093-24-07.8000W
Elevation 1,185ft

Falls Intl-Einarson Field METARs

METAR KINL 190754Z AUTO 04008KT 10SM OVC020 09/06 A2961 RMK AO2 SLP029 T00890061
Altimeter 29.61"
Temperature 8.9°C (48.0°F)
Wind 40° at 8KT
Clouds overcast at 2,000ft
Visibility 10.0mi
Time observed: 2022-05-19T07:54:00Z

Falls Intl-Einarson Field (Airport) Details

Status Operational
Activation March 1942
Ownership Public
Usage Public
Chart TWIN CITIES
ATC on-site No
Beacon schedule sunset-sunrise
Beacon color clear green

Falls Intl-Einarson Field (Airport) Contacts

Owner CITY OF INTL FALLS
Owner address BOX 392, INTERNATIONAL FALLS, MN 56649
Owner phone 218-283-4461
Manager GINA SCHELLENBERG
Manager address 78980 ST HWY 4 SOUTH, HECTOR, MN 55342
Manager phone 320-522-1966

Falls Intl-Einarson Field Radio Frequencies

Falls Intl-Einarson Field (Airport) Radio Frequencies

UNICOM 122.8
Common traffic advisory frequency (CTAF) 122.8